sensor_id;sensor_type;location;lat;lon;timestamp;temperature;humidity
61374;DHT22;47242;48.158;-1.586;2023-05-10T04:30:46;13.00;72.00
61374;DHT22;47242;48.158;-1.586;2023-05-10T04:33:12;13.00;72.20
61374;DHT22;47242;48.158;-1.586;2023-05-10T04:35:38;13.00;71.90
61374;DHT22;47242;48.158;-1.586;2023-05-10T04:38:05;13.00;72.50
61374;DHT22;47242;48.158;-1.586;2023-05-10T04:40:31;13.00;71.90
61374;DHT22;47242;48.158;-1.586;2023-05-10T04:42:56;13.00;72.20
61374;DHT22;47242;48.158;-1.586;2023-05-10T04:45:22;12.90;72.40
61374;DHT22;47242;48.158;-1.586;2023-05-10T04:47:47;12.80;72.80
61374;DHT22;47242;48.158;-1.586;2023-05-10T04:50:13;12.80;72.80
61374;DHT22;47242;48.158;-1.586;2023-05-10T04:52:39;12.80;73.10
61374;DHT22;47242;48.158;-1.586;2023-05-10T04:55:04;12.80;73.10
61374;DHT22;47242;48.158;-1.586;2023-05-10T04:57:32;12.80;73.70
61374;DHT22;47242;48.158;-1.586;2023-05-10T04:59:59;12.80;73.40
61374;DHT22;47242;48.158;-1.586;2023-05-10T05:02:25;12.80;73.00
61374;DHT22;47242;48.158;-1.586;2023-05-10T05:04:50;12.90;72.90
61374;DHT22;47242;48.158;-1.586;2023-05-10T05:07:16;12.90;72.70
61374;DHT22;47242;48.158;-1.586;2023-05-10T05:09:42;12.90;72.30
61374;DHT22;47242;48.158;-1.586;2023-05-10T05:12:07;12.90;72.50
61374;DHT22;47242;48.158;-1.586;2023-05-10T05:14:33;12.90;72.40
61374;DHT22;47242;48.158;-1.586;2023-05-10T05:16:59;12.90;72.40
61374;DHT22;47242;48.158;-1.586;2023-05-10T05:19:25;13.00;72.60
61374;DHT22;47242;48.158;-1.586;2023-05-10T05:21:50;13.00;72.50
61374;DHT22;47242;48.158;-1.586;2023-05-10T05:24:16;13.00;72.50
61374;DHT22;47242;48.158;-1.586;2023-05-10T05:26:41;13.00;72.40
61374;DHT22;47242;48.158;-1.586;2023-05-10T05:29:07;13.10;72.70
61374;DHT22;47242;48.158;-1.586;2023-05-10T05:31:33;13.20;73.00
61374;DHT22;47242;48.158;-1.586;2023-05-10T05:33:58;13.20;73.30
61374;DHT22;47242;48.158;-1.586;2023-05-10T05:36:24;13.20;73.70
61374;DHT22;47242;48.158;-1.586;2023-05-10T05:38:50;13.20;73.90
61374;DHT22;47242;48.158;-1.586;2023-05-10T05:41:15;13.30;74.10
61374;DHT22;47242;48.158;-1.586;2023-05-10T05:43:41;13.30;74.30
61374;DHT22;47242;48.158;-1.586;2023-05-10T05:46:06;13.40;73.80
61374;DHT22;47242;48.158;-1.586;2023-05-10T05:48:32;13.50;74.40
61374;DHT22;47242;48.158;-1.586;2023-05-10T05:50:58;13.60;74.50
61374;DHT22;47242;48.158;-1.586;2023-05-10T05:53:23;13.70;74.20
61374;DHT22;47242;48.158;-1.586;2023-05-10T05:55:56;13.80;73.60
61374;DHT22;47242;48.158;-1.586;2023-05-10T05:58:23;13.90;73.50
61374;DHT22;47242;48.158;-1.586;2023-05-10T06:00:49;14.00;74.40
61374;DHT22;47242;48.158;-1.586;2023-05-10T06:03:14;14.00;73.90
61374;DHT22;47242;48.158;-1.586;2023-05-10T06:05:43;14.00;74.20
61374;DHT22;47242;48.158;-1.586;2023-05-10T06:08:09;14.10;73.30
61374;DHT22;47242;48.158;-1.586;2023-05-10T06:10:35;14.20;72.90
61374;DHT22;47242;48.158;-1.586;2023-05-10T06:13:03;14.20;72.80
61374;DHT22;47242;48.158;-1.586;2023-05-10T06:15:29;14.30;73.00
61374;DHT22;47242;48.158;-1.586;2023-05-10T06:17:58;14.50;72.00
61374;DHT22;47242;48.158;-1.586;2023-05-10T06:20:23;14.60;72.50
61374;DHT22;47242;48.158;-1.586;2023-05-10T06:22:49;14.80;71.80
61374;DHT22;47242;48.158;-1.586;2023-05-10T06:25:15;15.10;71.90
61374;DHT22;47242;48.158;-1.586;2023-05-10T06:27:43;15.30;71.40
61374;DHT22;47242;48.158;-1.586;2023-05-10T06:30:09;15.50;70.90
61374;DHT22;47242;48.158;-1.586;2023-05-10T06:32:35;15.50;70.50
61374;DHT22;47242;48.158;-1.586;2023-05-10T06:35:01;15.60;70.20
61374;DHT22;47242;48.158;-1.586;2023-05-10T06:37:26;15.50;70.10
61374;DHT22;47242;48.158;-1.586;2023-05-10T06:39:52;15.40;70.20
61374;DHT22;47242;48.158;-1.586;2023-05-10T06:42:17;15.40;70.60
61374;DHT22;47242;48.158;-1.586;2023-05-10T06:44:43;15.30;70.50
61374;DHT22;47242;48.158;-1.586;2023-05-10T06:47:09;15.30;70.30
61374;DHT22;47242;48.158;-1.586;2023-05-10T06:49:35;15.40;70.20
61374;DHT22;47242;48.158;-1.586;2023-05-10T06:52:00;15.40;70.60
61374;DHT22;47242;48.158;-1.586;2023-05-10T06:54:26;15.40;70.60
61374;DHT22;47242;48.158;-1.586;2023-05-10T06:56:52;15.30;71.30
61374;DHT22;47242;48.158;-1.586;2023-05-10T06:59:18;15.30;71.10
61374;DHT22;47242;48.158;-1.586;2023-05-10T07:01:44;15.30;71.20
61374;DHT22;47242;48.158;-1.586;2023-05-10T07:04:10;15.20;71.60
61374;DHT22;47242;48.158;-1.586;2023-05-10T07:06:35;15.20;71.70
61374;DHT22;47242;48.158;-1.586;2023-05-10T07:09:01;15.40;71.00
61374;DHT22;47242;48.158;-1.586;2023-05-10T07:11:27;15.80;70.20
61374;DHT22;47242;48.158;-1.586;2023-05-10T07:13:53;16.30;69.10
61374;DHT22;47242;48.158;-1.586;2023-05-10T07:16:18;17.00;67.80
61374;DHT22;47242;48.158;-1.586;2023-05-10T07:18:44;17.30;66.00
61374;DHT22;47242;48.158;-1.586;2023-05-10T07:21:09;17.20;66.00
61374;DHT22;47242;48.158;-1.586;2023-05-10T07:23:35;17.50;65.70
61374;DHT22;47242;48.158;-1.586;2023-05-10T07:26:01;17.70;64.90
61374;DHT22;47242;48.158;-1.586;2023-05-10T07:28:27;17.40;64.80
61374;DHT22;47242;48.158;-1.586;2023-05-10T07:30:53;17.30;65.50
61374;DHT22;47242;48.158;-1.586;2023-05-10T07:33:18;17.30;65.90
61374;DHT22;47242;48.158;-1.586;2023-05-10T07:35:44;17.30;65.70
61374;DHT22;47242;48.158;-1.586;2023-05-10T07:38:10;17.30;65.50
61374;DHT22;47242;48.158;-1.586;2023-05-10T07:40:39;17.10;65.80
61374;DHT22;47242;48.158;-1.586;2023-05-10T07:43:04;17.00;66.40
61374;DHT22;47242;48.158;-1.586;2023-05-10T07:45:30;17.00;66.50
61374;DHT22;47242;48.158;-1.586;2023-05-10T07:47:56;16.90;66.50
61374;DHT22;47242;48.158;-1.586;2023-05-10T07:50:21;16.90;67.00
61374;DHT22;47242;48.158;-1.586;2023-05-10T07:52:47;16.90;66.70
61374;DHT22;47242;48.158;-1.586;2023-05-10T07:55:13;16.90;67.10
61374;DHT22;47242;48.158;-1.586;2023-05-10T07:57:39;16.80;66.80
61374;DHT22;47242;48.158;-1.586;2023-05-10T08:00:06;16.70;67.40
61374;DHT22;47242;48.158;-1.586;2023-05-10T08:02:34;16.60;67.60
61374;DHT22;47242;48.158;-1.586;2023-05-10T08:05:00;16.60;68.20
61374;DHT22;47242;48.158;-1.586;2023-05-10T08:07:26;16.40;68.50
61374;DHT22;47242;48.158;-1.586;2023-05-10T08:09:51;16.30;69.70
61374;DHT22;47242;48.158;-1.586;2023-05-10T08:12:17;16.30;69.60
61374;DHT22;47242;48.158;-1.586;2023-05-10T08:14:42;16.20;70.30
61374;DHT22;47242;48.158;-1.586;2023-05-10T08:17:08;16.10;70.90
61374;DHT22;47242;48.158;-1.586;2023-05-10T08:19:34;16.10;71.30
61374;DHT22;47242;48.158;-1.586;2023-05-10T08:22:00;16.10;71.70
61374;DHT22;47242;48.158;-1.586;2023-05-10T08:24:26;16.30;71.50
61374;DHT22;47242;48.158;-1.586;2023-05-10T08:26:51;16.60;71.00
61374;DHT22;47242;48.158;-1.586;2023-05-10T08:29:17;17.80;69.50
61374;DHT22;47242;48.158;-1.586;2023-05-10T08:31:42;18.80;67.60
61374;DHT22;47242;48.158;-1.586;2023-05-10T08:34:08;18.90;66.10
61374;DHT22;47242;48.158;-1.586;2023-05-10T08:36:34;18.70;66.20
61374;DHT22;47242;48.158;-1.586;2023-05-10T08:39:00;18.50;66.50
61374;DHT22;47242;48.158;-1.586;2023-05-10T08:41:26;18.10;66.50
61374;DHT22;47242;48.158;-1.586;2023-05-10T08:43:53;17.80;67.20
61374;DHT22;47242;48.158;-1.586;2023-05-10T08:46:21;17.50;67.90
61374;DHT22;47242;48.158;-1.586;2023-05-10T08:48:49;17.40;68.30
61374;DHT22;47242;48.158;-1.586;2023-05-10T08:51:18;17.50;68.70
61374;DHT22;47242;48.158;-1.586;2023-05-10T08:53:44;18.70;67.10
61374;DHT22;47242;48.158;-1.586;2023-05-10T08:56:11;19.90;63.80
61374;DHT22;47242;48.158;-1.586;2023-05-10T08:58:38;20.10;62.10
61374;DHT22;47242;48.158;-1.586;2023-05-10T09:01:05;20.00;62.10
61374;DHT22;47242;48.158;-1.586;2023-05-10T09:03:31;19.60;63.20
61374;DHT22;47242;48.158;-1.586;2023-05-10T09:05:58;19.30;63.50
61374;DHT22;47242;48.158;-1.586;2023-05-10T09:08:25;19.00;64.60
61374;DHT22;47242;48.158;-1.586;2023-05-10T09:10:51;18.90;64.20
61374;DHT22;47242;48.158;-1.586;2023-05-10T09:13:18;18.80;64.50
61374;DHT22;47242;48.158;-1.586;2023-05-10T09:15:45;18.70;65.30
61374;DHT22;47242;48.158;-1.586;2023-05-10T09:18:11;18.40;65.80
61374;DHT22;47242;48.158;-1.586;2023-05-10T09:20:37;18.20;66.10
61374;DHT22;47242;48.158;-1.586;2023-05-10T09:23:02;18.00;66.80
61374;DHT22;47242;48.158;-1.586;2023-05-10T09:25:28;17.80;67.30
61374;DHT22;47242;48.158;-1.586;2023-05-10T09:27:55;17.70;67.90
61374;DHT22;47242;48.158;-1.586;2023-05-10T09:30:30;17.40;67.90
61374;DHT22;47242;48.158;-1.586;2023-05-10T09:32:58;17.30;69.30
61374;DHT22;47242;48.158;-1.586;2023-05-10T09:35:26;17.40;70.20
61374;DHT22;47242;48.158;-1.586;2023-05-10T09:37:53;17.50;69.30
61374;DHT22;47242;48.158;-1.586;2023-05-10T09:40:22;18.00;69.30
61374;DHT22;47242;48.158;-1.586;2023-05-10T09:43:14;18.60;67.60
61374;DHT22;47242;48.158;-1.586;2023-05-10T09:45:41;19.00;66.30
61374;DHT22;47242;48.158;-1.586;2023-05-10T09:48:06;20.40;62.70
61374;DHT22;47242;48.158;-1.586;2023-05-10T09:50:32;20.80;61.80
61374;DHT22;47242;48.158;-1.586;2023-05-10T09:53:01;20.80;61.20
61374;DHT22;47242;48.158;-1.586;2023-05-10T09:55:45;20.60;61.20
61374;DHT22;47242;48.158;-1.586;2023-05-10T09:58:14;20.30;61.70
61374;DHT22;47242;48.158;-1.586;2023-05-10T10:00:44;20.10;61.20
61374;DHT22;47242;48.158;-1.586;2023-05-10T10:03:19;19.80;62.50
61374;DHT22;47242;48.158;-1.586;2023-05-10T10:05:47;19.60;63.40
61374;DHT22;47242;48.158;-1.586;2023-05-10T10:08:13;19.40;63.10
61374;DHT22;47242;48.158;-1.586;2023-05-10T10:10:39;19.20;63.40
61374;DHT22;47242;48.158;-1.586;2023-05-10T10:13:06;19.20;64.20
61374;DHT22;47242;48.158;-1.586;2023-05-10T10:15:33;19.20;64.00
61374;DHT22;47242;48.158;-1.586;2023-05-10T10:17:59;19.60;64.30
61374;DHT22;47242;48.158;-1.586;2023-05-10T10:20:26;19.50;63.60
61374;DHT22;47242;48.158;-1.586;2023-05-10T10:22:52;19.30;63.50
61374;DHT22;47242;48.158;-1.586;2023-05-10T10:25:20;19.00;64.60
61374;DHT22;47242;48.158;-1.586;2023-05-10T10:30:42;18.70;65.00
61374;DHT22;47242;48.158;-1.586;2023-05-10T10:35:52;19.50;63.70
61374;DHT22;47242;48.158;-1.586;2023-05-10T10:38:18;19.80;62.90
61374;DHT22;47242;48.158;-1.586;2023-05-10T10:40:44;20.30;63.20
61374;DHT22;47242;48.158;-1.586;2023-05-10T10:43:28;20.80;62.00
61374;DHT22;47242;48.158;-1.586;2023-05-10T10:46:17;21.00;60.50
61374;DHT22;47242;48.158;-1.586;2023-05-10T10:49:09;21.20;59.50
61374;DHT22;47242;48.158;-1.586;2023-05-10T10:51:39;21.60;58.60
61374;DHT22;47242;48.158;-1.586;2023-05-10T10:54:11;21.60;59.00
61374;DHT22;47242;48.158;-1.586;2023-05-10T10:56:37;21.20;59.90
61374;DHT22;47242;48.158;-1.586;2023-05-10T10:59:02;20.80;60.70
61374;DHT22;47242;48.158;-1.586;2023-05-10T11:01:33;20.30;62.40
61374;DHT22;47242;48.158;-1.586;2023-05-10T11:06:33;19.60;64.00
61374;DHT22;47242;48.158;-1.586;2023-05-10T11:09:07;19.30;65.10
61374;DHT22;47242;48.158;-1.586;2023-05-10T11:11:35;19.10;66.10
61374;DHT22;47242;48.158;-1.586;2023-05-10T11:14:06;18.90;67.00
61374;DHT22;47242;48.158;-1.586;2023-05-10T11:16:42;18.80;67.40
61374;DHT22;47242;48.158;-1.586;2023-05-10T11:19:11;18.70;67.40
61374;DHT22;47242;48.158;-1.586;2023-05-10T11:21:51;18.60;68.30
61374;DHT22;47242;48.158;-1.586;2023-05-10T11:24:25;18.40;68.60
61374;DHT22;47242;48.158;-1.586;2023-05-10T11:26:53;18.40;68.30
61374;DHT22;47242;48.158;-1.586;2023-05-10T11:29:19;18.50;68.50
61374;DHT22;47242;48.158;-1.586;2023-05-10T11:31:46;18.80;68.80
61374;DHT22;47242;48.158;-1.586;2023-05-10T11:34:26;19.10;68.80
61374;DHT22;47242;48.158;-1.586;2023-05-10T11:36:53;19.40;68.00
61374;DHT22;47242;48.158;-1.586;2023-05-10T11:39:20;19.80;69.00
61374;DHT22;47242;48.158;-1.586;2023-05-10T11:41:48;20.20;67.40
61374;DHT22;47242;48.158;-1.586;2023-05-10T11:44:14;20.50;66.10
61374;DHT22;47242;48.158;-1.586;2023-05-10T11:46:40;20.70;65.40
61374;DHT22;47242;48.158;-1.586;2023-05-10T11:49:07;20.80;64.70
61374;DHT22;47242;48.158;-1.586;2023-05-10T11:51:34;20.90;64.60
61374;DHT22;47242;48.158;-1.586;2023-05-10T11:54:01;20.60;64.30
61374;DHT22;47242;48.158;-1.586;2023-05-10T11:56:27;20.30;64.90
61374;DHT22;47242;48.158;-1.586;2023-05-10T11:58:55;20.20;64.70
61374;DHT22;47242;48.158;-1.586;2023-05-10T12:01:21;20.30;65.00
61374;DHT22;47242;48.158;-1.586;2023-05-10T12:03:51;20.30;64.90
61374;DHT22;47242;48.158;-1.586;2023-05-10T12:06:21;20.30;64.40
61374;DHT22;47242;48.158;-1.586;2023-05-10T12:08:48;20.40;64.90
61374;DHT22;47242;48.158;-1.586;2023-05-10T12:11:17;20.50;66.10
61374;DHT22;47242;48.158;-1.586;2023-05-10T12:13:44;20.50;65.10
61374;DHT22;47242;48.158;-1.586;2023-05-10T12:16:16;20.80;62.80
61374;DHT22;47242;48.158;-1.586;2023-05-10T12:18:42;20.90;65.20
61374;DHT22;47242;48.158;-1.586;2023-05-10T12:21:10;21.00;62.90
61374;DHT22;47242;48.158;-1.586;2023-05-10T12:23:37;20.90;63.10
61374;DHT22;47242;48.158;-1.586;2023-05-10T12:26:03;21.00;62.10
61374;DHT22;47242;48.158;-1.586;2023-05-10T12:28:32;20.90;61.80
61374;DHT22;47242;48.158;-1.586;2023-05-10T12:30:59;20.80;62.50
61374;DHT22;47242;48.158;-1.586;2023-05-10T12:33:25;20.40;62.40
61374;DHT22;47242;48.158;-1.586;2023-05-10T12:35:53;20.20;63.30
61374;DHT22;47242;48.158;-1.586;2023-05-10T12:38:36;19.90;64.70
61374;DHT22;47242;48.158;-1.586;2023-05-10T12:41:05;19.80;65.50
61374;DHT22;47242;48.158;-1.586;2023-05-10T12:43:33;19.60;66.40
61374;DHT22;47242;48.158;-1.586;2023-05-10T12:46:07;19.50;66.90
61374;DHT22;47242;48.158;-1.586;2023-05-10T12:48:35;19.50;66.90
61374;DHT22;47242;48.158;-1.586;2023-05-10T12:51:02;19.50;67.50
61374;DHT22;47242;48.158;-1.586;2023-05-10T12:53:27;19.60;67.70
61374;DHT22;47242;48.158;-1.586;2023-05-10T12:55:53;19.70;68.20
61374;DHT22;47242;48.158;-1.586;2023-05-10T12:58:19;19.80;68.30
61374;DHT22;47242;48.158;-1.586;2023-05-10T13:00:45;19.80;68.70
61374;DHT22;47242;48.158;-1.586;2023-05-10T13:03:11;19.90;68.90
61374;DHT22;47242;48.158;-1.586;2023-05-10T13:05:37;19.90;68.20
61374;DHT22;47242;48.158;-1.586;2023-05-10T13:08:03;19.90;67.70
61374;DHT22;47242;48.158;-1.586;2023-05-10T13:10:30;19.90;67.30
61374;DHT22;47242;48.158;-1.586;2023-05-10T13:12:56;19.80;67.00
61374;DHT22;47242;48.158;-1.586;2023-05-10T13:15:22;19.70;67.20
61374;DHT22;47242;48.158;-1.586;2023-05-10T13:17:48;19.60;67.80
61374;DHT22;47242;48.158;-1.586;2023-05-10T13:20:14;19.30;68.10
61374;DHT22;47242;48.158;-1.586;2023-05-10T13:22:40;19.40;68.60
61374;DHT22;47242;48.158;-1.586;2023-05-10T13:25:06;19.40;68.40
61374;DHT22;47242;48.158;-1.586;2023-05-10T13:27:32;19.30;68.40
61374;DHT22;47242;48.158;-1.586;2023-05-10T13:29:58;19.30;68.50
61374;DHT22;47242;48.158;-1.586;2023-05-10T13:32:25;19.20;69.20
61374;DHT22;47242;48.158;-1.586;2023-05-10T13:34:51;19.30;69.20
61374;DHT22;47242;48.158;-1.586;2023-05-10T13:37:17;19.50;69.00
61374;DHT22;47242;48.158;-1.586;2023-05-10T13:39:43;19.60;68.70
61374;DHT22;47242;48.158;-1.586;2023-05-10T13:42:08;19.70;68.60
61374;DHT22;47242;48.158;-1.586;2023-05-10T13:44:37;19.70;68.70
61374;DHT22;47242;48.158;-1.586;2023-05-10T13:47:04;19.40;68.50
61374;DHT22;47242;48.158;-1.586;2023-05-10T13:49:30;19.10;69.40
61374;DHT22;47242;48.158;-1.586;2023-05-10T13:51:55;18.80;69.00
61374;DHT22;47242;48.158;-1.586;2023-05-10T13:54:21;18.60;69.40
61374;DHT22;47242;48.158;-1.586;2023-05-10T13:56:47;18.50;69.20
61374;DHT22;47242;48.158;-1.586;2023-05-10T13:59:14;18.30;69.80
61374;DHT22;47242;48.158;-1.586;2023-05-10T14:01:42;18.30;69.70
61374;DHT22;47242;48.158;-1.586;2023-05-10T14:04:09;18.20;69.90
61374;DHT22;47242;48.158;-1.586;2023-05-10T14:06:38;18.20;70.00
61374;DHT22;47242;48.158;-1.586;2023-05-10T14:09:04;18.10;69.60
61374;DHT22;47242;48.158;-1.586;2023-05-10T14:11:29;18.10;69.40
61374;DHT22;47242;48.158;-1.586;2023-05-10T14:13:55;18.00;69.00
61374;DHT22;47242;48.158;-1.586;2023-05-10T14:16:21;18.00;69.90
61374;DHT22;47242;48.158;-1.586;2023-05-10T14:18:47;18.00;70.20
61374;DHT22;47242;48.158;-1.586;2023-05-10T14:21:12;18.00;69.70
61374;DHT22;47242;48.158;-1.586;2023-05-10T14:23:38;18.00;69.80
61374;DHT22;47242;48.158;-1.586;2023-05-10T14:26:04;18.00;69.80
61374;DHT22;47242;48.158;-1.586;2023-05-10T14:28:30;18.00;69.80
61374;DHT22;47242;48.158;-1.586;2023-05-10T14:30:55;18.00;69.70
61374;DHT22;47242;48.158;-1.586;2023-05-10T14:33:21;18.10;70.20
61374;DHT22;47242;48.158;-1.586;2023-05-10T14:35:47;18.20;70.30
61374;DHT22;47242;48.158;-1.586;2023-05-10T14:38:13;18.20;69.60
61374;DHT22;47242;48.158;-1.586;2023-05-10T14:40:39;18.20;69.70
61374;DHT22;47242;48.158;-1.586;2023-05-10T14:43:05;18.20;69.60
61374;DHT22;47242;48.158;-1.586;2023-05-10T14:45:31;18.30;69.80
61374;DHT22;47242;48.158;-1.586;2023-05-10T14:47:57;18.30;70.00
61374;DHT22;47242;48.158;-1.586;2023-05-10T14:50:22;18.30;69.10
61374;DHT22;47242;48.158;-1.586;2023-05-10T14:52:48;18.30;69.10
61374;DHT22;47242;48.158;-1.586;2023-05-10T14:55:14;18.30;69.20
61374;DHT22;47242;48.158;-1.586;2023-05-10T14:57:40;18.30;69.20
61374;DHT22;47242;48.158;-1.586;2023-05-10T15:00:06;18.40;69.50
61374;DHT22;47242;48.158;-1.586;2023-05-10T15:02:32;18.40;69.20
61374;DHT22;47242;48.158;-1.586;2023-05-10T15:04:58;18.50;69.70
61374;DHT22;47242;48.158;-1.586;2023-05-10T15:07:24;18.50;68.80
61374;DHT22;47242;48.158;-1.586;2023-05-10T15:09:50;18.60;68.70
61374;DHT22;47242;48.158;-1.586;2023-05-10T15:12:17;18.60;68.80
61374;DHT22;47242;48.158;-1.586;2023-05-10T15:14:43;18.60;69.80
61374;DHT22;47242;48.158;-1.586;2023-05-10T15:17:09;18.50;69.80
61374;DHT22;47242;48.158;-1.586;2023-05-10T15:19:35;18.60;70.10
61374;DHT22;47242;48.158;-1.586;2023-05-10T15:22:01;18.50;70.40
61374;DHT22;47242;48.158;-1.586;2023-05-10T15:24:27;18.50;70.70
61374;DHT22;47242;48.158;-1.586;2023-05-10T15:26:53;18.60;70.30
61374;DHT22;47242;48.158;-1.586;2023-05-10T15:29:19;18.70;70.70
61374;DHT22;47242;48.158;-1.586;2023-05-10T15:31:49;18.80;70.30
61374;DHT22;47242;48.158;-1.586;2023-05-10T15:34:16;18.80;70.00
61374;DHT22;47242;48.158;-1.586;2023-05-10T15:36:42;18.80;70.00
61374;DHT22;47242;48.158;-1.586;2023-05-10T15:39:07;18.80;69.80
61374;DHT22;47242;48.158;-1.586;2023-05-10T15:41:34;18.80;69.20
61374;DHT22;47242;48.158;-1.586;2023-05-10T15:44:00;18.80;68.90
61374;DHT22;47242;48.158;-1.586;2023-05-10T15:49:03;18.60;69.00
61374;DHT22;47242;48.158;-1.586;2023-05-10T15:51:29;18.60;69.10
61374;DHT22;47242;48.158;-1.586;2023-05-10T15:53:55;18.70;69.30
61374;DHT22;47242;48.158;-1.586;2023-05-10T15:56:21;18.80;69.20
61374;DHT22;47242;48.158;-1.586;2023-05-10T15:58:53;18.80;68.60
61374;DHT22;47242;48.158;-1.586;2023-05-10T16:01:19;18.80;68.30
61374;DHT22;47242;48.158;-1.586;2023-05-10T16:03:45;18.80;68.30
61374;DHT22;47242;48.158;-1.586;2023-05-10T16:06:11;18.70;67.60
61374;DHT22;47242;48.158;-1.586;2023-05-10T16:08:36;18.50;67.50
61374;DHT22;47242;48.158;-1.586;2023-05-10T16:11:02;18.30;67.80
61374;DHT22;47242;48.158;-1.586;2023-05-10T16:13:28;18.20;68.50
61374;DHT22;47242;48.158;-1.586;2023-05-10T16:15:54;18.20;68.60
61374;DHT22;47242;48.158;-1.586;2023-05-10T16:18:20;18.00;69.30
61374;DHT22;47242;48.158;-1.586;2023-05-10T16:20:45;18.00;69.30
61374;DHT22;47242;48.158;-1.586;2023-05-10T16:23:11;18.10;69.10
61374;DHT22;47242;48.158;-1.586;2023-05-10T16:25:38;18.20;69.10
61374;DHT22;47242;48.158;-1.586;2023-05-10T16:28:04;18.20;69.50
61374;DHT22;47242;48.158;-1.586;2023-05-10T16:30:29;18.30;69.70
61374;DHT22;47242;48.158;-1.586;2023-05-10T16:32:56;18.30;69.60
61374;DHT22;47242;48.158;-1.586;2023-05-10T16:35:22;18.60;69.40
61374;DHT22;47242;48.158;-1.586;2023-05-10T16:37:51;18.80;68.90
61374;DHT22;47242;48.158;-1.586;2023-05-10T16:40:17;18.90;69.00
61374;DHT22;47242;48.158;-1.586;2023-05-10T16:42:43;18.80;68.60
61374;DHT22;47242;48.158;-1.586;2023-05-10T16:45:09;18.80;68.70
61374;DHT22;47242;48.158;-1.586;2023-05-10T16:47:36;18.70;68.70
61374;DHT22;47242;48.158;-1.586;2023-05-10T16:50:03;18.50;69.10
61374;DHT22;47242;48.158;-1.586;2023-05-10T16:52:30;18.30;69.50
61374;DHT22;47242;48.158;-1.586;2023-05-10T16:54:57;18.30;69.60
61374;DHT22;47242;48.158;-1.586;2023-05-10T16:57:23;18.20;69.90
61374;DHT22;47242;48.158;-1.586;2023-05-10T16:59:49;18.10;70.00
61374;DHT22;47242;48.158;-1.586;2023-05-10T17:02:18;18.10;70.10
61374;DHT22;47242;48.158;-1.586;2023-05-10T17:04:44;18.10;70.30
61374;DHT22;47242;48.158;-1.586;2023-05-10T17:07:09;18.10;70.50
61374;DHT22;47242;48.158;-1.586;2023-05-10T17:09:36;18.00;70.70
61374;DHT22;47242;48.158;-1.586;2023-05-10T17:12:01;18.00;70.80
61374;DHT22;47242;48.158;-1.586;2023-05-10T17:14:28;17.90;71.00
61374;DHT22;47242;48.158;-1.586;2023-05-10T17:16:54;17.80;70.80
61374;DHT22;47242;48.158;-1.586;2023-05-10T17:19:20;17.80;71.00
61374;DHT22;47242;48.158;-1.586;2023-05-10T17:21:46;17.80;71.00
61374;DHT22;47242;48.158;-1.586;2023-05-10T17:24:12;17.80;71.10
61374;DHT22;47242;48.158;-1.586;2023-05-10T17:26:37;17.80;71.10
61374;DHT22;47242;48.158;-1.586;2023-05-10T17:29:03;17.80;71.20
61374;DHT22;47242;48.158;-1.586;2023-05-10T17:31:29;17.80;71.00
61374;DHT22;47242;48.158;-1.586;2023-05-10T17:33:55;17.90;70.90
61374;DHT22;47242;48.158;-1.586;2023-05-10T17:36:20;17.90;71.00
61374;DHT22;47242;48.158;-1.586;2023-05-10T17:38:55;17.90;71.00
61374;DHT22;47242;48.158;-1.586;2023-05-10T17:41:21;17.90;70.90
61374;DHT22;47242;48.158;-1.586;2023-05-10T17:43:47;17.90;71.20
61374;DHT22;47242;48.158;-1.586;2023-05-10T17:46:13;18.00;70.50
61374;DHT22;47242;48.158;-1.586;2023-05-10T17:48:42;17.90;70.50
61374;DHT22;47242;48.158;-1.586;2023-05-10T17:51:07;17.90;70.70
61374;DHT22;47242;48.158;-1.586;2023-05-10T17:53:33;17.90;70.80
61374;DHT22;47242;48.158;-1.586;2023-05-10T17:56:02;17.80;70.80
61374;DHT22;47242;48.158;-1.586;2023-05-10T17:58:28;17.90;70.50
61374;DHT22;47242;48.158;-1.586;2023-05-10T18:00:54;17.80;70.50
61374;DHT22;47242;48.158;-1.586;2023-05-10T18:03:22;17.80;70.60
61374;DHT22;47242;48.158;-1.586;2023-05-10T18:05:47;17.80;70.00
61374;DHT22;47242;48.158;-1.586;2023-05-10T18:08:13;17.70;69.60
61374;DHT22;47242;48.158;-1.586;2023-05-10T18:10:39;17.70;69.60
61374;DHT22;47242;48.158;-1.586;2023-05-10T18:13:05;17.60;70.00
61374;DHT22;47242;48.158;-1.586;2023-05-10T18:15:32;17.60;70.10
61374;DHT22;47242;48.158;-1.586;2023-05-10T18:18:01;17.50;70.20
61374;DHT22;47242;48.158;-1.586;2023-05-10T18:20:27;17.50;69.80
61374;DHT22;47242;48.158;-1.586;2023-05-10T18:22:53;17.40;69.50
61374;DHT22;47242;48.158;-1.586;2023-05-10T18:25:19;17.40;69.00
61374;DHT22;47242;48.158;-1.586;2023-05-10T18:27:44;17.40;69.40
61374;DHT22;47242;48.158;-1.586;2023-05-10T18:30:11;17.30;69.50
61374;DHT22;47242;48.158;-1.586;2023-05-10T18:32:37;17.30;69.50
61374;DHT22;47242;48.158;-1.586;2023-05-10T18:35:04;17.30;69.80
61374;DHT22;47242;48.158;-1.586;2023-05-10T18:37:30;17.30;70.30
61374;DHT22;47242;48.158;-1.586;2023-05-10T18:39:56;17.20;70.60
61374;DHT22;47242;48.158;-1.586;2023-05-10T18:42:22;17.10;71.20
61374;DHT22;47242;48.158;-1.586;2023-05-10T18:44:47;17.10;71.30
61374;DHT22;47242;48.158;-1.586;2023-05-10T18:47:13;17.00;71.50
61374;DHT22;47242;48.158;-1.586;2023-05-10T18:49:39;17.00;71.90
61374;DHT22;47242;48.158;-1.586;2023-05-10T18:52:04;16.90;72.00
61374;DHT22;47242;48.158;-1.586;2023-05-10T18:54:30;16.80;72.30
61374;DHT22;47242;48.158;-1.586;2023-05-10T18:56:55;16.80;72.20
61374;DHT22;47242;48.158;-1.586;2023-05-10T18:59:23;16.80;72.70
61374;DHT22;47242;48.158;-1.586;2023-05-10T19:01:49;16.80;72.50
61374;DHT22;47242;48.158;-1.586;2023-05-10T19:04:15;16.80;72.70
61374;DHT22;47242;48.158;-1.586;2023-05-10T19:06:40;16.70;73.00
61374;DHT22;47242;48.158;-1.586;2023-05-10T19:09:06;16.70;73.10
61374;DHT22;47242;48.158;-1.586;2023-05-10T19:11:33;16.70;73.00
61374;DHT22;47242;48.158;-1.586;2023-05-10T19:13:59;16.60;72.90
61374;DHT22;47242;48.158;-1.586;2023-05-10T19:16:25;16.60;73.00
61374;DHT22;47242;48.158;-1.586;2023-05-10T19:18:52;16.50;73.10
61374;DHT22;47242;48.158;-1.586;2023-05-10T19:21:18;16.50;73.20
61374;DHT22;47242;48.158;-1.586;2023-05-10T19:23:43;16.50;73.20
61374;DHT22;47242;48.158;-1.586;2023-05-10T19:26:09;16.50;73.30
61374;DHT22;47242;48.158;-1.586;2023-05-10T19:28:35;16.40;73.30
61374;DHT22;47242;48.158;-1.586;2023-05-10T19:31:01;16.30;73.40
61374;DHT22;47242;48.158;-1.586;2023-05-10T19:33:26;16.30;73.50
61374;DHT22;47242;48.158;-1.586;2023-05-10T19:35:53;16.30;73.40
61374;DHT22;47242;48.158;-1.586;2023-05-10T19:38:22;16.30;73.30
61374;DHT22;47242;48.158;-1.586;2023-05-10T19:40:50;16.30;73.30
61374;DHT22;47242;48.158;-1.586;2023-05-10T19:43:31;16.30;73.30
61374;DHT22;47242;48.158;-1.586;2023-05-10T19:45:59;16.30;73.50
61374;DHT22;47242;48.158;-1.586;2023-05-10T19:48:25;16.20;73.60
61374;DHT22;47242;48.158;-1.586;2023-05-10T19:50:51;16.20;73.70
61374;DHT22;47242;48.158;-1.586;2023-05-10T19:53:17;16.20;73.70